Terminal Aerodrome Forecast
Issued by NWS Charleston, WV

Current Version | Previous Version | Graphics & Text | Print | Product List | Glossary On
Versions: 1 2 3 4 5 6 7 8 9 10 11 12 13 14 15 16 17 18 19 20 21 22 23 24 25
422
FTUS41 KRLX 100136 AAA
TAFCRW
TAF AMD
KCRW 100136Z 1002/1024 26009G16KT 4SM -SHSN OVC025
     FM100300 26009KT P6SM OVC015
      TEMPO 1003/1006 4SM -SHSN OVC007
     FM101700 24011G17KT P6SM SCT080
     FM102100 22009KT P6SM BKN080=

USA.gov is the U.S. government's official web portal to all federal, state and local government web resources and services.